createdAt,value
2018-08-08T00:00:32.569Z,100275.62
2018-08-08T00:03:02.161Z,100266.42
2018-08-08T00:05:31.925Z,100268.01
2018-08-08T00:08:01.534Z,100261.19
2018-08-08T00:10:31.202Z,100261.37
2018-08-08T00:13:00.800Z,100258.31
2018-08-08T00:15:30.496Z,100259.27
2018-08-08T00:18:00.145Z,100260.30
2018-08-08T00:20:29.752Z,100266.66
2018-08-08T00:22:59.321Z,100260.93
2018-08-08T00:25:28.940Z,100259.75
2018-08-08T00:27:58.540Z,100260.11
2018-08-08T00:30:28.092Z,100253.20
2018-08-08T00:32:57.654Z,100248.58
2018-08-08T00:35:27.237Z,100258.13
2018-08-08T00:37:56.806Z,100258.75
2018-08-08T00:40:26.372Z,100248.31
2018-08-08T00:42:56.412Z,100247.61
2018-08-08T00:45:26.021Z,100246.12
2018-08-08T00:47:55.584Z,100237.48
2018-08-08T00:50:25.537Z,100232.02
2018-08-08T00:52:55.084Z,100231.86
2018-08-08T00:55:24.712Z,100223.62
2018-08-08T00:57:54.280Z,100224.72
2018-08-08T01:00:23.949Z,100227.66
2018-08-08T01:02:53.543Z,100232.76
2018-08-08T01:05:23.489Z,100226.79
2018-08-08T01:07:53.096Z,100225.80
2018-08-08T01:10:22.718Z,100226.97
2018-08-08T01:12:52.382Z,100222.84
2018-08-08T01:15:21.978Z,100222.20
2018-08-08T01:17:51.613Z,100227.77
2018-08-08T01:20:21.247Z,100228.75
2018-08-08T01:22:51.034Z,100226.16
2018-08-08T01:25:20.808Z,100221.40
2018-08-08T01:27:50.864Z,100228.22
2018-08-08T01:30:21.001Z,100229.70
2018-08-08T01:32:50.577Z,100225.78
2018-08-08T01:35:20.321Z,100232.12
2018-08-08T01:37:49.942Z,100230.94
2018-08-08T01:40:19.865Z,100229.25
2018-08-08T01:42:49.463Z,100225.32
2018-08-08T01:45:19.195Z,100222.33
2018-08-08T01:47:48.780Z,100220.21
2018-08-08T01:50:18.456Z,100218.55
2018-08-08T01:52:48.101Z,100217.77
2018-08-08T01:55:24.344Z,100228.43
2018-08-08T01:57:54.089Z,100223.57
2018-08-08T02:00:23.673Z,100228.98
2018-08-08T02:02:53.285Z,100223.75
2018-08-08T02:05:22.889Z,100224.29
2018-08-08T02:07:52.602Z,100219.89
2018-08-08T02:10:23.704Z,100224.44
2018-08-08T02:12:53.469Z,100218.71
2018-08-08T02:15:23.069Z,100215.72
2018-08-08T02:17:53.076Z,100219.40
2018-08-08T02:20:22.721Z,100219.94
2018-08-08T02:22:52.326Z,100216.41
2018-08-08T02:25:22.017Z,100208.98
2018-08-08T02:27:51.642Z,100203.80
2018-08-08T02:30:23.175Z,100206.54
2018-08-08T02:32:53.585Z,100206.69
2018-08-08T02:35:23.351Z,100201.03
2018-08-08T02:37:53.146Z,100202.04
2018-08-08T02:40:22.797Z,100206.98
2018-08-08T02:42:52.400Z,100205.28
2018-08-08T02:45:22.008Z,100200.89
2018-08-08T02:47:51.594Z,100203.23
2018-08-08T02:50:22.053Z,100201.11
2018-08-08T02:52:51.897Z,100208.23
2018-08-08T02:55:21.525Z,100203.41
2018-08-08T02:57:51.108Z,100210.61
2018-08-08T03:00:21.535Z,100218.68
2018-08-08T03:02:51.142Z,100219.79
2018-08-08T03:05:20.787Z,100216.33
2018-08-08T03:07:50.442Z,100217.34
2018-08-08T03:10:20.116Z,100219.20
2018-08-08T03:12:49.753Z,100219.74
2018-08-08T03:15:20.705Z,100213.63
2018-08-08T03:17:50.297Z,100220.75
2018-08-08T03:20:19.921Z,100219.02
2018-08-08T03:22:49.502Z,100212.83
2018-08-08T03:25:19.218Z,100222.33
2018-08-08T03:27:48.852Z,100220.13
2018-08-08T03:30:21.371Z,100218.47
2018-08-08T03:32:51.439Z,100218.21
2018-08-08T03:35:21.609Z,100217.81
2018-08-08T03:37:51.386Z,100223.28
2018-08-08T03:40:21.008Z,100224.61
2018-08-08T03:42:50.670Z,100222.52
2018-08-08T03:45:20.280Z,100223.05
2018-08-08T03:47:49.865Z,100220.52
2018-08-08T03:50:19.483Z,100222.79
2018-08-08T03:52:49.119Z,100231.64
2018-08-08T03:55:18.760Z,100222.86
2018-08-08T03:57:48.459Z,100224.59
2018-08-08T04:00:21.028Z,100228.12
2018-08-08T04:02:51.177Z,100223.25
2018-08-08T04:05:20.842Z,100232.44
2018-08-08T04:07:50.434Z,100230.70
2018-08-08T04:10:20.417Z,100220.86
2018-08-08T04:12:50.060Z,100223.98
2018-08-08T04:15:20.618Z,100233.64
2018-08-08T04:17:50.260Z,100229.07
2018-08-08T04:20:19.960Z,100227.13
2018-08-08T04:22:49.933Z,100237.11
2018-08-08T04:25:19.551Z,100241.77
2018-08-08T04:27:49.136Z,100244.59
2018-08-08T04:30:20.827Z,100242.51
2018-08-08T04:32:50.475Z,100240.22
2018-08-08T04:35:20.148Z,100237.52
2018-08-08T04:37:49.769Z,100237.93
2018-08-08T04:40:20.750Z,100239.69
2018-08-08T04:42:51.061Z,100248.20
2018-08-08T04:45:20.696Z,100256.72
2018-08-08T04:47:50.343Z,100256.33
2018-08-08T04:50:20.159Z,100253.35
2018-08-08T04:52:49.833Z,100257.99
2018-08-08T04:55:19.525Z,100254.79
2018-08-08T04:57:49.213Z,100247.67
2018-08-08T05:00:19.231Z,100242.42
2018-08-08T05:02:48.810Z,100249.02
2018-08-08T05:05:18.681Z,100240.09
2018-08-08T05:07:48.389Z,100238.53
2018-08-08T05:10:17.937Z,100240.25
2018-08-08T05:12:47.736Z,100241.98
2018-08-08T05:15:18.657Z,100242.15
2018-08-08T05:17:49.279Z,100237.56
2018-08-08T05:20:19.066Z,100233.65
2018-08-08T05:22:49.387Z,100243.36
2018-08-08T05:25:19.112Z,100242.95
2018-08-08T05:27:48.810Z,100246.83
2018-08-08T05:30:20.442Z,100251.38
2018-08-08T05:32:50.407Z,100253.16
2018-08-08T05:35:20.902Z,100253.41
2018-08-08T05:37:50.977Z,100257.02
2018-08-08T05:40:23.534Z,100263.52
2018-08-08T05:42:54.565Z,100262.39
2018-08-08T05:45:25.457Z,100266.61
2018-08-08T05:47:56.534Z,100264.34
2018-08-08T05:50:26.172Z,100268.17
2018-08-08T05:52:55.797Z,100268.78
2018-08-08T05:55:25.805Z,100273.03
2018-08-08T05:57:55.459Z,100282.33
2018-08-08T06:00:28.703Z,100292.34
2018-08-08T06:02:58.581Z,100294.89
2018-08-08T06:05:28.334Z,100293.87
2018-08-08T06:07:57.985Z,100295.09
2018-08-08T06:10:27.649Z,100298.91
2018-08-08T06:12:57.334Z,100303.97
2018-08-08T06:15:27.081Z,100306.61
2018-08-08T06:17:56.713Z,100305.50
2018-08-08T06:20:26.384Z,100304.70
2018-08-08T06:22:55.997Z,100313.47
2018-08-08T06:25:25.669Z,100315.63
2018-08-08T06:27:55.329Z,100317.09
2018-08-08T06:30:27.224Z,100318.20
2018-08-08T06:32:57.842Z,100316.90
2018-08-08T06:35:28.847Z,100312.00
2018-08-08T06:37:58.957Z,100307.16
2018-08-08T06:40:28.595Z,100309.75
2018-08-08T06:42:58.288Z,100302.97
2018-08-08T06:45:28.229Z,100298.01
2018-08-08T06:47:57.870Z,100296.62
2018-08-08T06:50:27.841Z,100296.39
2018-08-08T06:52:57.493Z,100294.19
2018-08-08T06:55:27.145Z,100289.30
2018-08-08T06:57:56.797Z,100293.55
2018-08-08T07:00:29.015Z,100292.14
2018-08-08T07:02:59.040Z,100282.34
2018-08-08T07:05:28.634Z,100294.61
2018-08-08T07:07:58.609Z,100291.39
2018-08-08T07:10:28.319Z,100296.41
2018-08-08T07:12:57.936Z,100292.44
2018-08-08T07:15:27.524Z,100289.52
2018-08-08T07:17:57.557Z,100283.44
2018-08-08T07:20:27.192Z,100278.55
2018-08-08T07:22:56.944Z,100276.42
2018-08-08T07:25:26.947Z,100280.55
2018-08-08T07:27:56.542Z,100282.07
2018-08-08T07:30:26.205Z,100282.91
2018-08-08T07:32:55.820Z,100281.08
2018-08-08T07:35:25.414Z,100275.92
2018-08-08T07:37:55.129Z,100278.51
2018-08-08T07:40:25.108Z,100275.50
2018-08-08T07:42:54.765Z,100271.51
2018-08-08T07:45:26.925Z,100266.88
2018-08-08T07:47:56.646Z,100265.53
2018-08-08T07:50:26.441Z,100262.31
2018-08-08T07:52:56.157Z,100266.78
2018-08-08T07:55:25.841Z,100264.68
2018-08-08T07:57:55.578Z,100260.09
2018-08-08T08:00:29.605Z,100261.20
2018-08-08T08:03:00.557Z,100261.30
2018-08-08T08:05:30.241Z,100268.30
2018-08-08T08:07:59.977Z,100264.98
2018-08-08T08:10:29.697Z,100266.27
2018-08-08T08:12:59.477Z,100272.53
2018-08-08T08:15:29.166Z,100279.36
2018-08-08T08:17:58.890Z,100279.02
2018-08-08T08:20:28.868Z,100275.82
2018-08-08T08:22:58.510Z,100283.52
2018-08-08T08:25:28.225Z,100273.51
2018-08-08T08:27:57.872Z,100280.34
2018-08-08T08:30:27.549Z,100284.13
2018-08-08T08:32:57.349Z,100281.09
2018-08-08T08:35:27.329Z,100283.67
2018-08-08T08:37:57.087Z,100281.34
2018-08-08T08:40:26.697Z,100286.50
2018-08-08T08:42:56.554Z,100281.70
2018-08-08T08:45:26.298Z,100279.20
2018-08-08T08:47:56.017Z,100280.55
2018-08-08T08:50:25.872Z,100275.52
2018-08-08T08:52:55.461Z,100274.53
2018-08-08T08:55:25.257Z,100278.53
2018-08-08T08:57:54.957Z,100278.16
2018-08-08T09:00:24.646Z,100275.27
2018-08-08T09:02:54.389Z,100280.25
2018-08-08T09:05:24.107Z,100271.52
2018-08-08T09:07:53.770Z,100277.36
2018-08-08T09:10:23.544Z,100277.22
2018-08-08T09:12:53.230Z,100268.41
2018-08-08T09:15:23.106Z,100274.17
2018-08-08T09:17:52.774Z,100273.37
2018-08-08T09:20:22.482Z,100284.83
2018-08-08T09:22:52.202Z,100280.66
2018-08-08T09:25:21.946Z,100283.56
2018-08-08T09:27:51.593Z,100284.50
2018-08-08T09:30:21.361Z,100282.66
2018-08-08T09:32:50.999Z,100286.45
2018-08-08T09:35:20.630Z,100286.62
2018-08-08T09:37:50.295Z,100277.91
2018-08-08T09:40:19.980Z,100279.41
2018-08-08T09:42:49.671Z,100279.41
2018-08-08T09:45:19.378Z,100280.16
2018-08-08T09:47:49.137Z,100270.00
2018-08-08T09:50:18.941Z,100272.06
2018-08-08T09:52:48.614Z,100269.12
2018-08-08T09:55:18.281Z,100266.84
2018-08-08T09:57:47.905Z,100263.63
2018-08-08T10:00:22.554Z,100265.94
2018-08-08T10:03:57.374Z,100259.80
2018-08-08T10:06:26.978Z,100258.88
2018-08-08T10:08:56.634Z,100258.93
2018-08-08T10:11:26.237Z,100252.20
2018-08-08T10:13:55.867Z,100248.41
2018-08-08T10:16:25.613Z,100247.97
2018-08-08T10:18:55.337Z,100247.48
2018-08-08T10:21:24.971Z,100249.47
2018-08-08T10:23:54.630Z,100249.27
2018-08-08T10:26:24.613Z,100252.56
2018-08-08T10:28:54.256Z,100249.49
2018-08-08T10:31:23.891Z,100250.46
2018-08-08T10:33:54.011Z,100258.25
2018-08-08T10:36:23.762Z,100251.01
2018-08-08T10:38:53.456Z,100242.96
2018-08-08T10:41:23.137Z,100242.75
2018-08-08T10:43:52.757Z,100239.45
2018-08-08T10:46:22.441Z,100242.52
2018-08-08T10:48:52.400Z,100246.58
2018-08-08T10:51:22.057Z,100245.09
2018-08-08T10:53:51.802Z,100232.16
2018-08-08T10:56:21.544Z,100240.77
2018-08-08T10:58:51.394Z,100241.11
2018-08-08T11:01:21.049Z,100246.06
2018-08-08T11:03:50.774Z,100234.84
2018-08-08T11:06:20.461Z,100233.20
2018-08-08T11:08:50.145Z,100234.28
2018-08-08T11:11:19.817Z,100231.26
2018-08-08T11:13:49.478Z,100236.79
2018-08-08T11:16:19.176Z,100234.19
2018-08-08T11:18:48.938Z,100237.37
2018-08-08T11:21:18.576Z,100228.47
2018-08-08T11:23:48.218Z,100224.80
2018-08-08T11:26:17.903Z,100216.70
2018-08-08T11:28:47.543Z,100204.21
2018-08-08T11:31:17.232Z,100208.68
2018-08-08T11:33:47.174Z,100204.06
2018-08-08T11:36:16.791Z,100213.29
2018-08-08T11:38:46.526Z,100208.33
2018-08-08T11:41:16.122Z,100215.65
2018-08-08T11:43:45.786Z,100206.13
2018-08-08T11:46:15.417Z,100211.69
2018-08-08T11:48:45.018Z,100212.36
2018-08-08T11:51:15.034Z,100203.52
2018-08-08T11:53:44.805Z,100197.42
2018-08-08T11:56:14.545Z,100202.67
2018-08-08T11:58:44.197Z,100198.75
2018-08-08T12:01:13.862Z,100203.16
2018-08-08T12:03:43.455Z,100203.31
2018-08-08T12:06:13.163Z,100192.36
2018-08-08T12:08:43.318Z,100204.27
2018-08-08T12:11:12.929Z,100203.77
2018-08-08T12:13:42.565Z,100193.20
2018-08-08T12:16:12.245Z,100204.11
2018-08-08T12:18:41.920Z,100198.95
2018-08-08T12:21:11.623Z,100198.52
2018-08-08T12:23:41.462Z,100191.17
2018-08-08T12:26:11.085Z,100188.08
2018-08-08T12:28:40.827Z,100179.73
2018-08-08T12:31:10.506Z,100187.73
2018-08-08T12:33:40.162Z,100184.67
2018-08-08T12:36:11.032Z,100187.36
2018-08-08T12:38:40.610Z,100188.53
2018-08-08T12:41:10.252Z,100184.93
2018-08-08T12:43:39.905Z,100176.11
2018-08-08T12:46:09.583Z,100174.90
2018-08-08T12:48:39.193Z,100175.25
2018-08-08T12:51:09.445Z,100186.80
2018-08-08T12:53:39.037Z,100176.96
2018-08-08T12:56:08.706Z,100163.88
2018-08-08T12:58:44.884Z,100181.94
2018-08-08T13:01:14.516Z,100170.56
2018-08-08T13:03:44.210Z,100167.84
2018-08-08T13:06:13.844Z,100167.17
2018-08-08T13:08:43.483Z,100166.19
2018-08-08T13:11:13.115Z,100161.60
2018-08-08T13:13:42.816Z,100168.48
2018-08-08T13:16:12.461Z,100164.54
2018-08-08T13:18:42.072Z,100157.33
2018-08-08T13:21:11.725Z,100160.37
2018-08-08T13:23:41.450Z,100154.39
2018-08-08T13:26:11.448Z,100152.89
2018-08-08T13:28:41.270Z,100144.22
2018-08-08T13:31:12.554Z,100143.10
2018-08-08T13:33:42.547Z,100137.34
2018-08-08T13:36:12.119Z,100131.92
2018-08-08T13:38:41.726Z,100131.57
2018-08-08T13:41:11.440Z,100128.16
2018-08-08T13:43:41.130Z,100130.39
2018-08-08T13:46:10.813Z,100126.97
2018-08-08T13:48:40.517Z,100119.45
2018-08-08T13:51:10.264Z,100117.08
2018-08-08T13:53:40.067Z,100112.80
2018-08-08T13:56:09.735Z,100131.87
2018-08-08T13:58:39.482Z,100115.03
2018-08-08T14:01:09.176Z,100114.83
2018-08-08T14:03:38.940Z,100121.84
2018-08-08T14:06:08.482Z,100123.53
2018-08-08T14:08:38.118Z,100111.60
2018-08-08T14:11:07.799Z,100105.48
2018-08-08T14:13:37.435Z,100113.47
2018-08-08T14:16:07.347Z,100111.80
2018-08-08T14:18:37.306Z,100114.70
2018-08-08T14:21:06.944Z,100116.75
2018-08-08T14:23:36.579Z,100119.30
2018-08-08T14:26:06.709Z,100110.61
2018-08-08T14:28:36.323Z,100126.13
2018-08-08T14:31:05.934Z,100125.32
2018-08-08T14:33:35.632Z,100122.75
2018-08-08T14:36:05.302Z,100124.80
2018-08-08T14:38:34.965Z,100123.25
2018-08-08T14:41:04.755Z,100129.20
2018-08-08T14:43:34.340Z,100123.41
2018-08-08T14:46:03.968Z,100121.71
2018-08-08T14:48:33.678Z,100124.13
2018-08-08T14:51:03.916Z,100121.03
2018-08-08T14:53:34.330Z,100121.36
2018-08-08T14:56:04.964Z,100126.64
2018-08-08T14:58:34.596Z,100123.06
2018-08-08T15:01:04.282Z,100136.05
2018-08-08T15:03:34.063Z,100138.76
2018-08-08T15:06:03.855Z,100143.54
2018-08-08T15:08:33.816Z,100156.78
2018-08-08T15:11:03.443Z,100156.94
2018-08-08T15:13:33.164Z,100163.98
2018-08-08T15:16:02.803Z,100162.73
2018-08-08T15:18:32.454Z,100159.94
2018-08-08T15:21:02.125Z,100158.11
2018-08-08T15:23:31.894Z,100158.87
2018-08-08T15:26:01.588Z,100157.95
2018-08-08T15:28:31.309Z,100167.02
2018-08-08T15:31:01.019Z,100161.80
2018-08-08T15:33:30.719Z,100165.50
2018-08-08T15:36:00.514Z,100175.27
2018-08-08T15:38:30.251Z,100189.25
2018-08-08T15:40:59.933Z,100184.64
2018-08-08T15:43:29.702Z,100188.81
2018-08-08T15:45:59.378Z,100180.41
2018-08-08T15:48:29.080Z,100191.30
2018-08-08T15:50:58.772Z,100197.53
2018-08-08T15:53:29.638Z,100186.56
2018-08-08T15:55:59.318Z,100177.79
2018-08-08T15:58:28.942Z,100179.13
2018-08-08T16:00:58.942Z,100181.58
2018-08-08T16:03:28.653Z,100178.88
2018-08-08T16:05:58.273Z,100183.92
2018-08-08T16:08:27.953Z,100184.97
2018-08-08T16:10:57.605Z,100194.35
2018-08-08T16:13:27.401Z,100195.12
2018-08-08T16:15:57.109Z,100198.86
2018-08-08T16:18:26.882Z,100193.30
2018-08-08T16:20:57.016Z,100198.16
2018-08-08T16:23:26.658Z,100197.01
2018-08-08T16:25:56.385Z,100207.01
2018-08-08T16:28:26.042Z,100202.78
2018-08-08T16:30:55.789Z,100206.71
2018-08-08T16:33:25.488Z,100203.28
2018-08-08T16:35:55.223Z,100207.34
2018-08-08T16:38:25.417Z,100218.38
2018-08-08T16:40:55.082Z,100210.67
2018-08-08T16:43:24.763Z,100213.84
2018-08-08T16:45:54.550Z,100213.97
2018-08-08T16:48:24.167Z,100211.39
2018-08-08T16:50:53.786Z,100222.21
2018-08-08T16:53:23.462Z,100221.84
2018-08-08T16:55:53.078Z,100225.77
2018-08-08T16:58:22.709Z,100224.91
2018-08-08T17:00:52.494Z,100239.40
2018-08-08T17:03:22.124Z,100234.31
2018-08-08T17:05:51.715Z,100246.16
2018-08-08T17:08:21.342Z,100253.91
2018-08-08T17:10:50.960Z,100251.83
2018-08-08T17:13:20.593Z,100254.40
2018-08-08T17:15:50.257Z,100259.83
2018-08-08T17:18:19.885Z,100267.87
2018-08-08T17:20:49.529Z,100269.25
2018-08-08T17:23:19.193Z,100282.41
2018-08-08T17:25:48.921Z,100286.22
2018-08-08T17:28:18.733Z,100281.10
2018-08-08T17:30:48.557Z,100289.23
2018-08-08T17:33:18.227Z,100300.80
2018-08-08T17:35:47.861Z,100302.20
2018-08-08T17:38:17.575Z,100303.92
2018-08-08T17:40:47.301Z,100317.09
2018-08-08T17:43:17.266Z,100318.82
2018-08-08T17:45:46.789Z,100320.80
2018-08-08T17:48:16.426Z,100327.84
2018-08-08T17:50:46.126Z,100328.24
2018-08-08T17:53:16.110Z,100333.64
2018-08-08T17:55:45.778Z,100335.64
2018-08-08T17:58:15.460Z,100332.81
2018-08-08T18:00:45.248Z,100335.37
2018-08-08T18:03:14.864Z,100344.59
2018-08-08T18:05:44.552Z,100344.45
2018-08-08T18:08:20.126Z,100349.61
2018-08-08T18:10:51.082Z,100349.61
2018-08-08T18:13:20.785Z,100366.47
2018-08-08T18:15:50.863Z,100363.64
2018-08-08T18:18:20.542Z,100384.97
2018-08-08T18:20:50.228Z,100390.70
2018-08-08T18:23:20.212Z,100402.84
2018-08-08T18:25:49.800Z,100407.25
2018-08-08T18:28:19.471Z,100413.51
2018-08-08T18:30:49.136Z,100410.92
2018-08-08T18:33:18.721Z,100424.41
2018-08-08T18:35:48.387Z,100429.42
2018-08-08T18:38:18.267Z,100438.00
2018-08-08T18:40:48.174Z,100442.16
2018-08-08T18:43:17.813Z,100443.50
2018-08-08T18:45:47.489Z,100457.10
2018-08-08T18:48:17.117Z,100459.80
2018-08-08T18:50:46.852Z,100459.98
2018-08-08T18:53:16.617Z,100468.05
2018-08-08T18:55:46.319Z,100467.98
2018-08-08T18:58:15.978Z,100472.36
2018-08-08T19:00:45.761Z,100472.58
2018-08-08T19:03:15.385Z,100477.36
2018-08-08T19:05:45.096Z,100473.64
2018-08-08T19:08:15.081Z,100474.46
2018-08-08T19:10:44.736Z,100482.91
2018-08-08T19:13:14.467Z,100490.34
2018-08-08T19:15:44.142Z,100499.50
2018-08-08T19:18:13.987Z,100504.13
2018-08-08T19:20:43.631Z,100505.94
2018-08-08T19:23:13.302Z,100504.54
2018-08-08T19:25:43.104Z,100513.20
2018-08-08T19:28:12.798Z,100516.28
2018-08-08T19:30:42.801Z,100523.63
2018-08-08T19:33:12.510Z,100532.34
2018-08-08T19:35:42.800Z,100543.71
2018-08-08T19:38:12.513Z,100533.52
2018-08-08T19:40:42.122Z,100538.31
2018-08-08T19:43:11.856Z,100533.24
2018-08-08T19:45:41.518Z,100531.71
2018-08-08T19:48:11.121Z,100534.41
2018-08-08T19:50:57.320Z,100540.50
2018-08-08T19:53:27.891Z,100542.03
2018-08-08T19:55:57.507Z,100541.65
2018-08-08T19:58:27.142Z,100541.20
2018-08-08T20:00:56.807Z,100544.45
2018-08-08T20:03:26.388Z,100544.80
2018-08-08T20:05:56.335Z,100543.85
2018-08-08T20:08:26.756Z,100543.64
2018-08-08T20:10:57.330Z,100553.28
2018-08-08T20:13:27.157Z,100554.53
2018-08-08T20:15:58.295Z,100549.42
2018-08-08T20:18:27.937Z,100560.23
2018-08-08T20:20:58.095Z,100566.46
2018-08-08T20:23:27.668Z,100576.23
2018-08-08T20:25:57.307Z,100581.67
2018-08-08T20:28:26.890Z,100582.06
2018-08-08T20:30:56.838Z,100578.27
2018-08-08T20:33:26.474Z,100578.66
2018-08-08T20:35:56.104Z,100582.20
2018-08-08T20:38:25.771Z,100572.59
2018-08-08T20:40:55.425Z,100571.60
2018-08-08T20:43:25.027Z,100575.13
2018-08-08T20:45:54.911Z,100574.91
2018-08-08T20:48:24.558Z,100577.11
2018-08-08T20:50:54.206Z,100571.28
2018-08-08T20:53:23.849Z,100580.66
2018-08-08T20:55:53.445Z,100579.37
2018-08-08T20:58:23.051Z,100584.43
2018-08-08T21:00:52.667Z,100579.71
2018-08-08T21:03:22.259Z,100583.54
2018-08-08T21:05:51.897Z,100583.79
2018-08-08T21:08:21.533Z,100582.23
2018-08-08T21:10:51.159Z,100585.86
2018-08-08T21:13:20.762Z,100571.33
2018-08-08T21:15:50.392Z,100575.42
2018-08-08T21:18:20.268Z,100575.51
2018-08-08T21:20:49.948Z,100569.37
2018-08-08T21:23:19.537Z,100571.09
2018-08-08T21:25:49.145Z,100567.00
2018-08-08T21:28:18.793Z,100565.66
2018-08-08T21:30:48.437Z,100557.70
2018-08-08T21:33:18.057Z,100562.59
2018-08-08T21:35:47.818Z,100565.10
2018-08-08T21:38:17.507Z,100562.14
2018-08-08T21:40:47.085Z,100574.42
2018-08-08T21:43:16.778Z,100569.67
2018-08-08T21:45:46.461Z,100565.95
2018-08-08T21:48:16.067Z,100575.61
2018-08-08T21:50:45.649Z,100576.78
2018-08-08T21:53:17.841Z,100573.02
2018-08-08T21:56:04.446Z,100576.86
2018-08-08T21:58:50.989Z,100572.16
2018-08-08T22:01:37.434Z,100576.31
2018-08-08T22:04:24.083Z,100578.34
2018-08-08T22:07:10.660Z,100584.67
2018-08-08T22:11:53.565Z,100582.20
2018-08-08T22:14:40.206Z,100590.77
2018-08-08T22:17:26.509Z,100589.22
2018-08-08T22:19:56.176Z,100595.36
2018-08-08T22:22:25.791Z,100589.52
2018-08-08T22:24:55.443Z,100592.12
2018-08-08T22:27:25.042Z,100596.61
2018-08-08T22:29:54.635Z,100597.95
2018-08-08T22:32:24.292Z,100595.75
2018-08-08T22:34:53.998Z,100598.82
2018-08-08T22:37:23.570Z,100599.86
2018-08-08T22:39:53.269Z,100604.95
2018-08-08T22:42:22.842Z,100602.92
2018-08-08T22:44:52.654Z,100605.30
2018-08-08T22:47:22.396Z,100608.80
2018-08-08T22:49:51.987Z,100613.45
2018-08-08T22:52:21.574Z,100611.97
2018-08-08T22:54:51.250Z,100614.55
2018-08-08T22:57:20.827Z,100613.52
2018-08-08T22:59:50.404Z,100608.83
2018-08-08T23:02:20.045Z,100609.08
2018-08-08T23:04:49.601Z,100615.16
2018-08-08T23:07:19.238Z,100613.23
2018-08-08T23:09:48.828Z,100617.42
2018-08-08T23:12:18.474Z,100617.66
2018-08-08T23:14:48.049Z,100628.15
2018-08-08T23:17:17.649Z,100627.56
2018-08-08T23:19:47.310Z,100623.87
2018-08-08T23:22:33.936Z,100619.23
2018-08-08T23:25:03.565Z,100625.41
2018-08-08T23:27:33.270Z,100619.43
2018-08-08T23:30:02.955Z,100626.33
2018-08-08T23:32:32.562Z,100629.75
2018-08-08T23:35:02.167Z,100634.63
2018-08-08T23:37:31.776Z,100634.58
2018-08-08T23:40:01.390Z,100640.71
2018-08-08T23:42:31.000Z,100643.58
2018-08-08T23:45:00.664Z,100641.92
2018-08-08T23:47:30.241Z,100637.98
2018-08-08T23:49:59.931Z,100643.41
2018-08-08T23:52:29.825Z,100642.30
2018-08-08T23:54:59.424Z,100646.23
2018-08-08T23:57:29.001Z,100644.91
2018-08-08T23:59:58.605Z,100643.56
